createdAt,value
2023-02-28T00:01:22.524Z,103186.50
2023-02-28T00:03:51.610Z,103188.28
2023-02-28T00:06:19.480Z,103182.19
2023-02-28T00:08:47.364Z,103177.78
2023-02-28T00:11:15.773Z,103181.34
2023-02-28T00:13:47.153Z,103177.81
2023-02-28T00:16:15.969Z,103182.19
2023-02-28T00:18:43.851Z,103187.41
2023-02-28T00:21:12.936Z,103184.75
2023-02-28T00:23:40.723Z,103192.63
2023-02-28T00:26:08.399Z,103193.50
2023-02-28T00:28:36.079Z,103190.84
2023-02-28T00:31:03.835Z,103182.06
2023-02-28T00:33:31.531Z,103182.06
2023-02-28T00:36:06.489Z,103179.44
2023-02-28T00:38:35.573Z,103175.03
2023-02-28T00:41:05.752Z,103178.53
2023-02-28T00:43:34.696Z,103175.03
2023-02-28T00:46:02.546Z,103174.16
2023-02-28T00:48:30.279Z,103176.78
2023-02-28T00:50:57.948Z,103176.75
2023-02-28T00:53:25.639Z,103181.16
2023-02-28T00:55:54.661Z,103173.28
2023-02-28T00:58:22.700Z,103178.50
2023-02-28T01:00:50.626Z,103180.25
2023-02-28T01:03:18.742Z,103185.53
2023-02-28T01:05:46.733Z,103182.00
2023-02-28T01:08:14.594Z,103185.53
2023-02-28T01:10:42.381Z,103188.16
2023-02-28T01:13:11.442Z,103178.50
2023-02-28T01:15:39.253Z,103186.41
2023-02-28T01:18:06.949Z,103187.28
2023-02-28T01:20:35.009Z,103189.00
2023-02-28T01:23:02.690Z,103182.94
2023-02-28T01:25:30.412Z,103184.69
2023-02-28T01:27:58.562Z,103183.78
2023-02-28T01:30:27.599Z,103182.94
2023-02-28T01:32:55.282Z,103174.13
2023-02-28T01:35:22.992Z,103182.00
2023-02-28T01:37:50.665Z,103193.41
2023-02-28T01:40:18.354Z,103192.53
2023-02-28T01:42:46.028Z,103187.28
2023-02-28T01:45:23.304Z,103189.88
2023-02-28T01:47:52.974Z,103186.34
2023-02-28T01:50:22.665Z,103192.47
2023-02-28T01:52:50.587Z,103189.84
2023-02-28T01:55:18.984Z,103184.56
2023-02-28T01:57:48.370Z,103189.81
2023-02-28T02:00:17.059Z,103196.88
2023-02-28T02:02:45.261Z,103190.72
2023-02-28T02:05:16.116Z,103188.97
2023-02-28T02:07:44.968Z,103182.81
2023-02-28T02:10:15.868Z,103181.06
2023-02-28T02:13:12.496Z,103188.94
2023-02-28T02:15:42.831Z,103184.56
2023-02-28T02:18:14.161Z,103183.66
2023-02-28T02:20:59.041Z,103184.53
2023-02-28T02:23:42.192Z,103175.75
2023-02-28T02:26:40.179Z,103179.25
2023-02-28T02:29:38.270Z,103179.25
2023-02-28T02:32:44.256Z,103179.25
2023-02-28T02:35:15.799Z,103173.09
2023-02-28T02:37:45.283Z,103175.72
2023-02-28T02:40:15.348Z,103173.97
2023-02-28T02:42:46.308Z,103176.59
2023-02-28T02:45:14.919Z,103174.84
2023-02-28T02:47:42.588Z,103182.72
2023-02-28T02:50:13.288Z,103172.22
2023-02-28T02:52:44.335Z,103169.56
2023-02-28T02:55:13.399Z,103168.69
2023-02-28T02:57:43.886Z,103173.09
2023-02-28T03:00:12.893Z,103181.84
2023-02-28T03:02:40.647Z,103167.81
2023-02-28T03:05:10.600Z,103181.81
2023-02-28T03:07:38.290Z,103179.16
2023-02-28T03:10:35.511Z,103179.16
2023-02-28T03:13:13.487Z,103181.78
2023-02-28T03:15:45.668Z,103174.78
2023-02-28T03:18:16.054Z,103179.16
2023-02-28T03:20:47.687Z,103187.03
2023-02-28T03:23:17.332Z,103179.13
2023-02-28T03:25:53.802Z,103187.91
2023-02-28T03:28:24.280Z,103182.63
2023-02-28T03:30:54.697Z,103181.72
2023-02-28T03:33:24.127Z,103186.13
2023-02-28T03:35:53.703Z,103187.00
2023-02-28T03:38:24.352Z,103179.13
2023-02-28T03:41:06.756Z,103176.50
2023-02-28T03:43:36.937Z,103167.72
2023-02-28T03:46:07.012Z,103174.75
2023-02-28T03:48:37.238Z,103178.22
2023-02-28T03:51:05.264Z,103174.75
2023-02-28T03:53:34.345Z,103177.38
2023-02-28T03:56:05.656Z,103175.63
2023-02-28T03:58:35.383Z,103183.50
2023-02-28T04:01:08.793Z,103186.13
2023-02-28T04:03:37.500Z,103178.22
2023-02-28T04:06:05.558Z,103185.22
2023-02-28T04:08:33.240Z,103183.50
2023-02-28T04:11:05.558Z,103181.72
2023-02-28T04:13:33.329Z,103190.47
2023-02-28T04:16:01.086Z,103188.72
2023-02-28T04:18:28.745Z,103190.47
2023-02-28T04:20:56.456Z,103189.59
2023-02-28T04:23:24.178Z,103192.22
2023-02-28T04:25:52.231Z,103195.72
2023-02-28T04:28:21.286Z,103201.00
2023-02-28T04:30:48.988Z,103198.34
2023-02-28T04:33:16.652Z,103205.34
2023-02-28T04:35:44.329Z,103203.59
2023-02-28T04:38:12.040Z,103194.00
2023-02-28T04:40:39.690Z,103195.69
2023-02-28T04:43:07.350Z,103192.22
2023-02-28T04:45:36.940Z,103198.31
2023-02-28T04:48:04.751Z,103196.59
2023-02-28T04:50:32.447Z,103196.59
2023-02-28T04:53:00.150Z,103207.09
2023-02-28T04:55:27.825Z,103194.84
2023-02-28T04:57:55.491Z,103205.34
2023-02-28T05:00:23.512Z,103204.47
2023-02-28T05:02:52.527Z,103199.19
2023-02-28T05:05:20.450Z,103206.19
2023-02-28T05:07:48.127Z,103203.53
2023-02-28T05:10:15.979Z,103213.16
2023-02-28T05:12:43.731Z,103211.41
2023-02-28T05:15:12.927Z,103216.63
2023-02-28T05:17:40.586Z,103214.88
2023-02-28T05:20:15.695Z,103211.38
2023-02-28T05:22:44.185Z,103214.91
2023-02-28T05:25:15.146Z,103213.19
2023-02-28T05:27:42.892Z,103211.47
2023-02-28T05:30:12.238Z,103209.75
2023-02-28T05:32:40.154Z,103216.75
2023-02-28T05:35:09.913Z,103217.66
2023-02-28T05:37:37.584Z,103212.41
2023-02-28T05:40:07.884Z,103210.59
2023-02-28T05:42:35.579Z,103210.69
2023-02-28T05:45:03.257Z,103212.44
2023-02-28T05:47:30.926Z,103213.34
2023-02-28T05:49:58.682Z,103211.59
2023-02-28T05:52:27.811Z,103214.25
2023-02-28T05:54:55.520Z,103223.91
2023-02-28T05:57:24.858Z,103230.91
2023-02-28T05:59:52.679Z,103223.03
2023-02-28T06:02:20.401Z,103227.41
2023-02-28T06:04:48.144Z,103222.13
2023-02-28T06:07:16.275Z,103225.66
2023-02-28T06:09:45.341Z,103225.66
2023-02-28T06:12:13.014Z,103228.28
2023-02-28T06:14:40.700Z,103223.03
2023-02-28T06:17:08.394Z,103226.53
2023-02-28T06:19:37.855Z,103227.41
2023-02-28T06:22:05.582Z,103225.63
2023-02-28T06:24:33.347Z,103224.72
2023-02-28T06:27:05.870Z,103228.22
2023-02-28T06:29:33.655Z,103236.09
2023-02-28T06:32:01.411Z,103240.47
2023-02-28T06:34:29.141Z,103236.97
2023-02-28T06:36:56.787Z,103236.97
2023-02-28T06:39:24.803Z,103241.34
2023-02-28T06:41:56.146Z,103243.09
2023-02-28T06:44:25.831Z,103243.09
2023-02-28T06:46:53.797Z,103247.50
2023-02-28T06:49:21.515Z,103250.13
2023-02-28T06:51:49.508Z,103251.00
2023-02-28T06:54:17.231Z,103258.84
2023-02-28T06:56:45.083Z,103267.56
2023-02-28T06:59:12.844Z,103266.66
2023-02-28T07:01:42.014Z,103266.66
2023-02-28T07:04:09.847Z,103256.16
2023-02-28T07:06:37.660Z,103258.84
2023-02-28T07:09:06.037Z,103269.38
2023-02-28T07:11:33.737Z,103265.00
2023-02-28T07:14:01.524Z,103257.13
2023-02-28T07:16:29.387Z,103266.81
2023-02-28T07:18:58.667Z,103269.50
2023-02-28T07:21:26.377Z,103264.25
2023-02-28T07:23:54.072Z,103272.16
2023-02-28T07:26:22.324Z,103280.06
2023-02-28T07:28:50.805Z,103274.81
2023-02-28T07:31:19.433Z,103280.09
2023-02-28T07:33:47.232Z,103275.69
2023-02-28T07:36:19.038Z,103273.09
2023-02-28T07:38:48.986Z,103272.22
2023-02-28T07:41:17.445Z,103277.47
2023-02-28T07:43:45.223Z,103284.44
2023-02-28T07:46:13.694Z,103288.84
2023-02-28T07:48:41.377Z,103291.47
2023-02-28T07:51:09.133Z,103284.44
2023-02-28T07:53:38.285Z,103290.59
2023-02-28T07:56:06.769Z,103280.97
2023-02-28T07:58:34.452Z,103293.25
2023-02-28T08:01:07.168Z,103291.47
2023-02-28T08:03:34.891Z,103286.22
2023-02-28T08:06:03.378Z,103296.72
2023-02-28T08:08:32.234Z,103285.34
2023-02-28T08:11:02.411Z,103290.59
2023-02-28T08:13:30.351Z,103288.81
2023-02-28T08:15:58.167Z,103289.69
2023-02-28T08:18:25.960Z,103292.34
2023-02-28T08:20:53.652Z,103296.75
2023-02-28T08:23:21.333Z,103301.09
2023-02-28T08:25:55.146Z,103290.59
2023-02-28T08:28:26.730Z,103295.84
2023-02-28T08:30:54.883Z,103287.09
2023-02-28T08:33:22.638Z,103293.22
2023-02-28T08:35:50.338Z,103294.09
2023-02-28T08:38:18.060Z,103287.06
2023-02-28T08:40:45.723Z,103288.84
2023-02-28T08:43:13.441Z,103288.84
2023-02-28T08:45:42.529Z,103292.34
2023-02-28T08:48:10.226Z,103287.06
2023-02-28T08:50:37.902Z,103282.72
2023-02-28T08:53:05.626Z,103289.75
2023-02-28T08:55:33.307Z,103289.72
2023-02-28T08:58:02.098Z,103289.75
2023-02-28T09:00:30.080Z,103286.25
2023-02-28T09:02:59.119Z,103277.50
2023-02-28T09:05:26.854Z,103284.47
2023-02-28T09:07:54.524Z,103289.78
2023-02-28T09:10:22.319Z,103295.91
2023-02-28T09:12:49.972Z,103292.41
2023-02-28T09:15:17.704Z,103297.66
2023-02-28T09:17:47.029Z,103301.19
2023-02-28T09:20:17.308Z,103295.91
2023-02-28T09:22:45.028Z,103295.06
2023-02-28T09:25:12.732Z,103304.72
2023-02-28T09:27:42.285Z,103302.09
2023-02-28T09:30:11.096Z,103304.75
2023-02-28T09:32:38.810Z,103304.75
2023-02-28T09:35:07.481Z,103302.16
2023-02-28T09:37:36.536Z,103305.66
2023-02-28T09:40:05.296Z,103303.91
2023-02-28T09:42:33.906Z,103299.56
2023-02-28T09:45:02.039Z,103309.22
2023-02-28T09:47:32.102Z,103298.72
2023-02-28T09:50:00.455Z,103304.84
2023-02-28T09:52:30.062Z,103312.75
2023-02-28T09:55:01.378Z,103314.50
2023-02-28T09:57:33.967Z,103311.88
2023-02-28T10:00:10.821Z,103325.03
2023-02-28T10:02:48.602Z,103311.88
2023-02-28T10:05:16.793Z,103314.50
2023-02-28T10:07:56.092Z,103318.91
2023-02-28T10:10:26.372Z,103311.88
2023-02-28T10:12:55.032Z,103318.94
2023-02-28T10:15:23.879Z,103318.06
2023-02-28T10:17:55.797Z,103313.69
2023-02-28T10:20:34.889Z,103319.88
2023-02-28T10:23:08.436Z,103308.44
2023-02-28T10:25:38.454Z,103311.09
2023-02-28T10:28:11.841Z,103305.84
2023-02-28T10:30:40.603Z,103313.75
2023-02-28T10:33:10.604Z,103319.88
2023-02-28T10:35:38.328Z,103311.16
2023-02-28T10:38:10.858Z,103309.41
2023-02-28T10:40:39.937Z,103310.34
2023-02-28T10:43:09.733Z,103310.34
2023-02-28T10:45:38.203Z,103314.78
2023-02-28T10:48:07.546Z,103309.50
2023-02-28T10:50:39.059Z,103313.03
2023-02-28T10:53:12.272Z,103308.66
2023-02-28T10:55:41.427Z,103312.22
2023-02-28T10:58:22.523Z,103319.25
2023-02-28T11:00:50.230Z,103324.50
2023-02-28T11:03:25.969Z,103318.34
2023-02-28T11:05:53.646Z,103321.03
2023-02-28T11:08:21.440Z,103320.25
2023-02-28T11:10:56.382Z,103323.78
2023-02-28T11:13:28.078Z,103318.50
2023-02-28T11:15:56.685Z,103307.97
2023-02-28T11:18:26.521Z,103304.47
2023-02-28T11:20:55.089Z,103303.56
2023-02-28T11:23:22.780Z,103306.22
2023-02-28T11:25:54.551Z,103304.50
2023-02-28T11:28:27.625Z,103304.50
2023-02-28T11:31:02.926Z,103304.50
2023-02-28T11:33:31.310Z,103294.00
2023-02-28T11:36:00.887Z,103300.19
2023-02-28T11:38:28.793Z,103296.69
2023-02-28T11:41:05.440Z,103300.19
2023-02-28T11:43:40.549Z,103290.59
2023-02-28T11:46:15.229Z,103285.38
2023-02-28T11:48:47.112Z,103287.16
2023-02-28T11:51:17.795Z,103281.91
2023-02-28T11:54:07.109Z,103281.94
2023-02-28T11:56:38.464Z,103284.56
2023-02-28T11:59:28.286Z,103281.94
2023-02-28T12:02:06.330Z,103272.28
2023-02-28T12:04:39.772Z,103265.28
2023-02-28T12:07:11.632Z,103264.41
2023-02-28T12:09:45.605Z,103262.69
2023-02-28T12:12:23.805Z,103260.06
2023-02-28T12:14:58.751Z,103245.16
2023-02-28T12:17:35.229Z,103250.44
2023-02-28T12:20:09.948Z,103250.47
2023-02-28T12:22:39.747Z,103245.19
2023-02-28T12:25:23.425Z,103243.41
2023-02-28T12:27:53.970Z,103239.91
2023-02-28T12:30:23.610Z,103236.47
2023-02-28T12:32:51.934Z,103239.06
2023-02-28T12:35:21.306Z,103235.59
2023-02-28T12:37:51.809Z,103238.25
2023-02-28T12:40:21.227Z,103239.13
2023-02-28T12:42:50.816Z,103225.97
2023-02-28T12:45:21.840Z,103228.63
2023-02-28T12:47:53.045Z,103227.75
2023-02-28T12:50:20.963Z,103223.34
2023-02-28T12:52:53.446Z,103223.38
2023-02-28T12:55:24.830Z,103220.75
2023-02-28T12:57:55.473Z,103225.16
2023-02-28T13:00:25.142Z,103225.16
2023-02-28T13:03:03.803Z,103219.00
2023-02-28T13:06:01.999Z,103218.16
2023-02-28T13:08:43.473Z,103212.03
2023-02-28T13:11:24.818Z,103211.16
2023-02-28T13:13:59.417Z,103208.53
2023-02-28T13:16:28.530Z,103200.63
2023-02-28T13:19:10.256Z,103205.91
2023-02-28T13:21:44.897Z,103201.50
2023-02-28T13:24:12.819Z,103198.00
2023-02-28T13:27:26.258Z,103191.88
2023-02-28T13:29:54.252Z,103193.66
2023-02-28T13:32:39.678Z,103198.06
2023-02-28T13:35:17.916Z,103195.44
2023-02-28T13:37:45.932Z,103183.19
2023-02-28T13:40:31.574Z,103185.81
2023-02-28T13:42:59.255Z,103191.09
2023-02-28T13:45:28.475Z,103191.09
2023-02-28T13:48:00.528Z,103190.22
2023-02-28T13:50:34.317Z,103186.72
2023-02-28T13:53:28.873Z,103184.94
2023-02-28T13:56:00.366Z,103186.72
2023-02-28T13:58:43.947Z,103189.38
2023-02-28T14:01:26.546Z,103189.34
2023-02-28T14:04:18.641Z,103193.75
2023-02-28T14:06:49.444Z,103185.81
2023-02-28T14:09:24.266Z,103186.72
2023-02-28T14:11:52.352Z,103184.94
2023-02-28T14:14:56.214Z,103191.09
2023-02-28T14:17:23.911Z,103184.06
2023-02-28T14:19:53.802Z,103176.13
2023-02-28T14:22:42.278Z,103192.88
2023-02-28T14:25:12.153Z,103187.56
2023-02-28T14:27:43.246Z,103185.78
2023-02-28T14:30:53.046Z,103190.13
2023-02-28T14:33:38.619Z,103183.94
2023-02-28T14:36:13.857Z,103180.38
2023-02-28T14:38:44.794Z,103185.63
2023-02-28T14:41:24.000Z,103191.75
2023-02-28T14:43:57.215Z,103185.63
2023-02-28T14:46:26.051Z,103196.13
2023-02-28T14:48:53.768Z,103197.88
2023-02-28T14:51:23.398Z,103194.34
2023-02-28T14:53:52.944Z,103195.19
2023-02-28T14:56:23.392Z,103189.88
2023-02-28T14:58:54.884Z,103195.13
2023-02-28T15:01:23.217Z,103196.03
2023-02-28T15:03:50.917Z,103193.34
2023-02-28T15:06:19.169Z,103181.00
2023-02-28T15:08:48.225Z,103173.00
2023-02-28T15:11:17.161Z,103176.53
2023-02-28T15:13:47.114Z,103171.25
2023-02-28T15:16:15.989Z,103172.09
2023-02-28T15:18:47.240Z,103176.47
2023-02-28T15:21:18.537Z,103172.03
2023-02-28T15:23:49.384Z,103161.44
2023-02-28T15:26:17.925Z,103164.97
2023-02-28T15:28:45.679Z,103163.19
2023-02-28T15:31:23.775Z,103155.25
2023-02-28T15:33:55.410Z,103165.81
2023-02-28T15:36:24.259Z,103151.69
2023-02-28T15:38:55.071Z,103159.59
2023-02-28T15:41:26.451Z,103154.31
2023-02-28T15:44:33.043Z,103158.72
2023-02-28T15:47:03.023Z,103156.06
2023-02-28T15:49:33.504Z,103153.44
2023-02-28T15:52:02.951Z,103149.91
2023-02-28T15:54:32.674Z,103150.78
2023-02-28T15:57:03.516Z,103149.03
2023-02-28T15:59:31.875Z,103141.09
2023-02-28T16:02:14.105Z,103139.34
2023-02-28T16:04:57.007Z,103142.91
2023-02-28T16:07:25.077Z,103140.28
2023-02-28T16:09:54.717Z,103138.53
2023-02-28T16:12:22.497Z,103142.09
2023-02-28T16:14:50.499Z,103136.78
2023-02-28T16:17:22.816Z,103141.19
2023-02-28T16:19:50.563Z,103147.38
2023-02-28T16:22:18.301Z,103144.75
2023-02-28T16:24:45.990Z,103146.53
2023-02-28T16:27:19.980Z,103143.91
2023-02-28T16:29:47.779Z,103147.47
2023-02-28T16:32:16.179Z,103142.19
2023-02-28T16:34:43.976Z,103144.88
2023-02-28T16:37:15.429Z,103150.16
2023-02-28T16:39:43.298Z,103146.69
2023-02-28T16:44:41.835Z,103148.56
2023-02-28T16:47:11.032Z,103154.75
2023-02-28T16:49:39.120Z,103151.28
2023-02-28T16:52:07.015Z,103158.34
2023-02-28T16:54:34.733Z,103161.03
2023-02-28T16:57:02.439Z,103161.09
2023-02-28T16:59:30.203Z,103153.19
2023-02-28T17:01:59.746Z,103154.09
2023-02-28T17:04:27.652Z,103157.66
2023-02-28T17:06:55.458Z,103162.06
2023-02-28T17:09:28.280Z,103162.91
2023-02-28T17:11:58.775Z,103159.41
2023-02-28T17:14:26.632Z,103158.56
2023-02-28T17:16:54.372Z,103161.19
2023-02-28T17:19:23.473Z,103170.00
2023-02-28T17:21:51.422Z,103171.78
2023-02-28T17:24:28.874Z,103164.72
2023-02-28T17:26:57.879Z,103162.97
2023-02-28T17:29:25.994Z,103175.28
2023-02-28T17:31:53.868Z,103170.88
2023-02-28T17:34:23.020Z,103180.56
2023-02-28T17:36:53.001Z,103179.69
2023-02-28T17:39:25.092Z,103180.56
2023-02-28T17:41:53.404Z,103183.19
2023-02-28T17:44:21.188Z,103183.19
2023-02-28T17:46:50.089Z,103187.53
2023-02-28T17:49:17.905Z,103192.78
2023-02-28T17:51:47.756Z,103191.03
2023-02-28T17:54:18.286Z,103191.03
2023-02-28T17:56:47.041Z,103194.53
2023-02-28T17:59:15.070Z,103196.28
2023-02-28T18:01:42.788Z,103195.41
2023-02-28T18:04:10.548Z,103191.00
2023-02-28T18:06:46.936Z,103201.53
2023-02-28T18:09:16.153Z,103195.38
2023-02-28T18:11:45.990Z,103198.84
2023-02-28T18:14:13.760Z,103208.53
2023-02-28T18:16:41.454Z,103203.22
2023-02-28T18:19:09.967Z,103206.72
2023-02-28T18:21:37.698Z,103208.47
2023-02-28T18:24:06.004Z,103206.69
2023-02-28T18:26:35.144Z,103203.16
2023-02-28T18:29:02.842Z,103202.25
2023-02-28T18:31:32.394Z,103203.16
2023-02-28T18:34:00.179Z,103201.38
2023-02-28T18:36:28.451Z,103197.81
2023-02-28T18:38:56.470Z,103194.28
2023-02-28T18:41:24.237Z,103187.25
2023-02-28T18:43:54.203Z,103196.00
2023-02-28T18:46:22.256Z,103201.25
2023-02-28T18:48:49.940Z,103198.59
2023-02-28T18:51:18.671Z,103200.38
2023-02-28T18:53:46.533Z,103198.59
2023-02-28T18:56:14.843Z,103194.19
2023-02-28T18:58:42.631Z,103191.56
2023-02-28T19:01:18.107Z,103187.16
2023-02-28T19:03:46.041Z,103190.63
2023-02-28T19:06:13.828Z,103192.38
2023-02-28T19:08:41.610Z,103195.00
2023-02-28T19:11:09.930Z,103194.13
2023-02-28T19:13:38.338Z,103204.66
2023-02-28T19:16:07.090Z,103195.00
2023-02-28T19:18:36.237Z,103187.97
2023-02-28T19:21:03.907Z,103194.97
2023-02-28T19:23:32.456Z,103194.97
2023-02-28T19:26:00.159Z,103200.22
2023-02-28T19:28:29.594Z,103198.47
2023-02-28T19:30:57.374Z,103208.13
2023-02-28T19:33:25.059Z,103202.88
2023-02-28T19:35:54.134Z,103199.34
2023-02-28T19:38:21.823Z,103214.28
2023-02-28T19:40:49.488Z,103204.59
2023-02-28T19:43:17.174Z,103208.06
2023-02-28T19:45:44.848Z,103206.31
2023-02-28T19:48:12.535Z,103209.84
2023-02-28T19:50:41.361Z,103220.31
2023-02-28T19:53:10.751Z,103217.69
2023-02-28T19:55:39.563Z,103222.09
2023-02-28T19:58:07.274Z,103215.03
2023-02-28T20:00:34.947Z,103213.28
2023-02-28T20:03:02.617Z,103215.88
2023-02-28T20:05:30.303Z,103215.00
2023-02-28T20:07:57.959Z,103222.00
2023-02-28T20:10:27.062Z,103227.25
2023-02-28T20:12:54.727Z,103222.00
2023-02-28T20:15:22.389Z,103214.09
2023-02-28T20:17:50.113Z,103217.63
2023-02-28T20:20:17.926Z,103217.59
2023-02-28T20:22:45.596Z,103221.97
2023-02-28T20:25:13.273Z,103222.88
2023-02-28T20:27:42.450Z,103217.59
2023-02-28T20:30:10.867Z,103214.94
2023-02-28T20:32:39.491Z,103218.47
2023-02-28T20:35:08.638Z,103223.69
2023-02-28T20:37:36.310Z,103214.03
2023-02-28T20:40:04.397Z,103219.31
2023-02-28T20:42:32.065Z,103215.75
2023-02-28T20:45:01.164Z,103221.03
2023-02-28T20:47:29.371Z,103223.63
2023-02-28T20:49:57.037Z,103213.13
2023-02-28T20:52:24.746Z,103214.88
2023-02-28T20:54:52.891Z,103219.25
2023-02-28T20:57:20.871Z,103217.47
2023-02-28T20:59:48.569Z,103226.22
2023-02-28T21:02:17.840Z,103216.56
2023-02-28T21:04:45.667Z,103216.56
2023-02-28T21:07:13.405Z,103214.81
2023-02-28T21:09:41.141Z,103207.78
2023-02-28T21:12:08.896Z,103203.38
2023-02-28T21:14:36.642Z,103211.28
2023-02-28T21:17:08.385Z,103199.84
2023-02-28T21:19:37.456Z,103197.19
2023-02-28T21:22:05.224Z,103195.44
2023-02-28T21:24:32.995Z,103201.63
2023-02-28T21:27:02.047Z,103196.38
2023-02-28T21:29:29.809Z,103199.88
2023-02-28T21:31:57.524Z,103212.16
2023-02-28T21:34:26.874Z,103215.66
2023-02-28T21:36:56.864Z,103218.28
2023-02-28T21:39:29.997Z,103214.81
2023-02-28T21:42:03.409Z,103208.66
2023-02-28T21:44:31.551Z,103206.06
2023-02-28T21:47:01.899Z,103206.91
2023-02-28T21:49:29.899Z,103208.66
2023-02-28T21:51:59.485Z,103202.53
2023-02-28T21:54:27.294Z,103209.56
2023-02-28T21:56:55.976Z,103206.06
2023-02-28T21:59:23.780Z,103213.91
2023-02-28T22:01:51.919Z,103213.03
2023-02-28T22:04:22.367Z,103211.22
2023-02-28T22:06:51.189Z,103206.88
2023-02-28T22:09:20.257Z,103201.63
2023-02-28T22:11:48.109Z,103201.63
2023-02-28T22:14:15.832Z,103205.94
2023-02-28T22:16:54.580Z,103209.47
2023-02-28T22:19:23.088Z,103199.81
2023-02-28T22:21:51.558Z,103207.69
2023-02-28T22:24:24.082Z,103205.91
2023-02-28T22:26:51.968Z,103200.66
2023-02-28T22:29:19.688Z,103198.03
2023-02-28T22:31:47.504Z,103207.63
2023-02-28T22:34:15.311Z,103202.38
2023-02-28T22:36:43.116Z,103205.88
2023-02-28T22:39:10.793Z,103195.34
2023-02-28T22:41:39.866Z,103209.34
2023-02-28T22:44:07.991Z,103198.81
2023-02-28T22:46:36.133Z,103204.94
2023-02-28T22:49:07.473Z,103202.28
2023-02-28T22:51:35.337Z,103205.81
2023-02-28T22:54:04.311Z,103211.06
2023-02-28T22:56:32.461Z,103220.69
2023-02-28T22:59:02.188Z,103222.47
2023-02-28T23:01:30.940Z,103223.38
2023-02-28T23:03:58.825Z,103226.91
2023-02-28T23:06:27.790Z,103222.53
2023-02-28T23:08:57.442Z,103225.16
2023-02-28T23:11:25.990Z,103237.44
2023-02-28T23:13:59.536Z,103242.69
2023-02-28T23:16:30.549Z,103239.16
2023-02-28T23:18:58.987Z,103239.19
2023-02-28T23:21:26.885Z,103235.69
2023-02-28T23:23:54.660Z,103234.81
2023-02-28T23:26:22.343Z,103232.13
2023-02-28T23:28:50.079Z,103231.25
2023-02-28T23:31:17.953Z,103233.91
2023-02-28T23:33:47.013Z,103237.41
2023-02-28T23:36:15.434Z,103233.88
2023-02-28T23:38:44.108Z,103225.94
2023-02-28T23:41:12.143Z,103223.28
2023-02-28T23:43:40.605Z,103231.13
2023-02-28T23:46:08.787Z,103218.84
2023-02-28T23:48:36.504Z,103221.47
2023-02-28T23:51:08.394Z,103224.97
2023-02-28T23:53:36.244Z,103218.81
2023-02-28T23:56:04.320Z,103213.56
2023-02-28T23:58:32.084Z,103209.13
